Meteo Giornale » Osservazioni meteo Arabia Saudita » Wadi Al Dawasser
ore: 18:00 - Osservazioni Meteo Wadi Al Dawasser
Lat. 20° 30' N Lon. 45° 12' E Alt. 624 metri s.l.m.
42 °C
Sereno
Temp. 24 Ore
28 °C
45 °C
Sud-Est
14.8 Km/h
Dew point -4 °C
Umidità 5 %
Visibilità 10 Km
Il sole sorge alle ore 05:43
Il sole tramonta alle ore 18:15
| Data e Ora | Cielo e Fenomeni | T °C | DP °C | Um. % | Pres. hPa | Vis. km | Vento km/h | |
|---|---|---|---|---|---|---|---|---|
| Oggi h: 18:00 | Sereno | 42 | -4 | 5 | 1006 | 10 | SE 14.8 | |
| Oggi h: 17:00 | Sereno | 43 | -3 | 5 | 1006 | 10 | SE 16.7 | |
| Oggi h: 16:00 | Sereno | 44 | -1 | 6 | 1006 | 10 | E/SE 16.7 | |
| Oggi h: 15:00 | Sereno | 44 | -1 | 6 | 1006 | 10 | E 13 | |
| Oggi h: 14:00 | Sereno | 44 | -4 | 4 | 1006 | 10 | E 16.7 | |
| Oggi h: 13:00 | Sereno | 45 | -1 | 5 | 1007 | 10 | E/SE 27.8 | |
| Oggi h: 12:00 | Sereno | 43 | 3 | 8 | 1008 | 10 | E 16.7 | |
| Oggi h: 11:00 | Sereno | 42 | 4 | 9 | 1008 | 10 | S/SE 14.8 | |
| Oggi h: 10:00 | Sereno | 40 | 2 | 9 | 1008 | 10 | SE 16.7 | |
| Oggi h: 09:00 | Sereno | 38 | 0 | 9 | 1008 | 10 | SE 14.8 | |
| Oggi h: 08:00 | Sereno | 35 | 0 | 10 | 1008 | 10 | SE 18.5 | |
| Oggi h: 07:00 | Sereno | 30 | 1 | 15 | 1008 | 10 | SE 11.1 | |
| Oggi h: 06:00 | Sereno | 28 | 1 | 17 | 1007 | 10 | SE 14.8 | |
| Oggi h: 05:00 | Sereno | 29 | 2 | 17 | 1007 | 10 | SE 13 | |
| Oggi h: 04:00 | Sereno | 29 | 1 | 16 | 1006 | 10 | SE 14.8 | |
| Oggi h: 03:00 | Sereno | 30 | 1 | 15 | 1006 | 10 | E/SE 13 | |
| Oggi h: 02:00 | Sereno | 30 | 0 | 14 | 1006 | 10 | SE 13 | |
| Oggi h: 01:00 | Sereno | 31 | 0 | 13 | 1006 | 10 | SE 13 | |
| Oggi h: 00:00 | Sereno | 33 | 0 | 12 | 1006 | 10 | E/SE 13 | |
| Ieri h: 23:00 | Sereno | 34 | 1 | 12 | 1007 | 10 | SE 7.4 | |
| Ieri h: 22:00 | Sereno | 35 | -1 | 10 | 1007 | 10 | E 13 | |
| Ieri h: 21:00 | Sereno | 36 | -2 | 8 | 1006 | 10 | E 11.1 | |
| Ieri h: 20:00 | Sereno | 38 | -2 | 7 | 1006 | 10 | E 14.8 | |
| Ieri h: 19:00 | Sereno | 40 | -4 | 6 | 1005 | 10 | E 13 | |



